sensor_id;sensor_type;location;lat;lon;timestamp;P1;durP1;ratioP1;P2;durP2;ratioP2
16994;SDS011;8614;48.522;9.206;2022-09-01T00:00:43;15.10;;;13.80;;
16994;SDS011;8614;48.522;9.206;2022-09-01T00:03:14;14.87;;;13.67;;
16994;SDS011;8614;48.522;9.206;2022-09-01T00:05:42;14.90;;;13.60;;
16994;SDS011;8614;48.522;9.206;2022-09-01T00:08:10;14.60;;;13.30;;
16994;SDS011;8614;48.522;9.206;2022-09-01T00:10:37;16.37;;;14.87;;
16994;SDS011;8614;48.522;9.206;2022-09-01T00:13:04;15.20;;;13.90;;
16994;SDS011;8614;48.522;9.206;2022-09-01T00:15:31;16.63;;;14.37;;
16994;SDS011;8614;48.522;9.206;2022-09-01T00:17:59;16.00;;;14.30;;
16994;SDS011;8614;48.522;9.206;2022-09-01T00:20:27;14.20;;;13.00;;
16994;SDS011;8614;48.522;9.206;2022-09-01T00:22:54;15.23;;;13.97;;
16994;SDS011;8614;48.522;9.206;2022-09-01T00:25:22;15.30;;;14.00;;
16994;SDS011;8614;48.522;9.206;2022-09-01T00:27:49;15.10;;;13.70;;
16994;SDS011;8614;48.522;9.206;2022-09-01T00:30:16;15.93;;;13.40;;
16994;SDS011;8614;48.522;9.206;2022-09-01T00:32:44;14.50;;;13.10;;
16994;SDS011;8614;48.522;9.206;2022-09-01T00:35:11;13.67;;;12.57;;
16994;SDS011;8614;48.522;9.206;2022-09-01T00:37:39;14.73;;;13.33;;
16994;SDS011;8614;48.522;9.206;2022-09-01T00:40:06;15.17;;;13.73;;
16994;SDS011;8614;48.522;9.206;2022-09-01T00:42:35;14.23;;;12.93;;
16994;SDS011;8614;48.522;9.206;2022-09-01T00:45:04;13.43;;;12.33;;
16994;SDS011;8614;48.522;9.206;2022-09-01T00:47:34;13.47;;;12.23;;
16994;SDS011;8614;48.522;9.206;2022-09-01T00:50:01;14.97;;;13.50;;
16994;SDS011;8614;48.522;9.206;2022-09-01T00:52:33;14.30;;;12.90;;
16994;SDS011;8614;48.522;9.206;2022-09-01T00:55:06;14.27;;;12.97;;
16994;SDS011;8614;48.522;9.206;2022-09-01T00:57:35;14.73;;;13.33;;
16994;SDS011;8614;48.522;9.206;2022-09-01T01:00:06;14.83;;;13.47;;
16994;SDS011;8614;48.522;9.206;2022-09-01T01:02:36;14.93;;;13.47;;
16994;SDS011;8614;48.522;9.206;2022-09-01T01:05:04;17.13;;;14.17;;
16994;SDS011;8614;48.522;9.206;2022-09-01T01:07:31;14.47;;;13.20;;
16994;SDS011;8614;48.522;9.206;2022-09-01T01:10:09;15.10;;;13.63;;
16994;SDS011;8614;48.522;9.206;2022-09-01T01:12:37;16.73;;;15.03;;
16994;SDS011;8614;48.522;9.206;2022-09-01T01:15:07;16.73;;;15.23;;
16994;SDS011;8614;48.522;9.206;2022-09-01T01:17:36;16.43;;;14.93;;
16994;SDS011;8614;48.522;9.206;2022-09-01T01:20:04;15.67;;;14.33;;
16994;SDS011;8614;48.522;9.206;2022-09-01T01:22:54;15.90;;;14.50;;
16994;SDS011;8614;48.522;9.206;2022-09-01T01:25:35;15.17;;;13.67;;
16994;SDS011;8614;48.522;9.206;2022-09-01T01:28:06;15.80;;;14.40;;
16994;SDS011;8614;48.522;9.206;2022-09-01T01:30:37;14.70;;;13.50;;
16994;SDS011;8614;48.522;9.206;2022-09-01T01:33:07;14.90;;;13.40;;
16994;SDS011;8614;48.522;9.206;2022-09-01T01:35:35;16.70;;;15.30;;
16994;SDS011;8614;48.522;9.206;2022-09-01T01:38:03;16.03;;;14.53;;
16994;SDS011;8614;48.522;9.206;2022-09-01T01:40:33;16.27;;;14.63;;
16994;SDS011;8614;48.522;9.206;2022-09-01T01:43:02;15.53;;;14.13;;
16994;SDS011;8614;48.522;9.206;2022-09-01T01:45:29;15.33;;;13.90;;
16994;SDS011;8614;48.522;9.206;2022-09-01T01:47:57;15.97;;;14.47;;
16994;SDS011;8614;48.522;9.206;2022-09-01T01:50:26;16.60;;;15.10;;
16994;SDS011;8614;48.522;9.206;2022-09-01T01:53:01;17.47;;;15.90;;
16994;SDS011;8614;48.522;9.206;2022-09-01T01:55:29;17.00;;;15.33;;
16994;SDS011;8614;48.522;9.206;2022-09-01T01:57:59;15.83;;;14.27;;
16994;SDS011;8614;48.522;9.206;2022-09-01T02:00:28;15.30;;;14.00;;
16994;SDS011;8614;48.522;9.206;2022-09-01T02:03:00;14.97;;;13.77;;
16994;SDS011;8614;48.522;9.206;2022-09-01T02:05:27;15.37;;;14.00;;
16994;SDS011;8614;48.522;9.206;2022-09-01T02:07:57;15.70;;;14.40;;
16994;SDS011;8614;48.522;9.206;2022-09-01T02:10:29;15.80;;;14.50;;
16994;SDS011;8614;48.522;9.206;2022-09-01T02:12:57;14.80;;;13.53;;
16994;SDS011;8614;48.522;9.206;2022-09-01T02:15:30;15.20;;;14.00;;
16994;SDS011;8614;48.522;9.206;2022-09-01T02:18:07;15.70;;;14.50;;
16994;SDS011;8614;48.522;9.206;2022-09-01T02:20:35;16.67;;;15.27;;
16994;SDS011;8614;48.522;9.206;2022-09-01T02:23:02;17.47;;;16.00;;
16994;SDS011;8614;48.522;9.206;2022-09-01T02:25:33;17.00;;;15.30;;
16994;SDS011;8614;48.522;9.206;2022-09-01T02:28:01;17.87;;;16.33;;
16994;SDS011;8614;48.522;9.206;2022-09-01T02:30:29;16.10;;;14.50;;
16994;SDS011;8614;48.522;9.206;2022-09-01T02:32:57;15.43;;;14.03;;
16994;SDS011;8614;48.522;9.206;2022-09-01T02:35:24;14.93;;;13.43;;
16994;SDS011;8614;48.522;9.206;2022-09-01T02:37:53;16.17;;;14.77;;
16994;SDS011;8614;48.522;9.206;2022-09-01T02:40:21;17.47;;;15.80;;
16994;SDS011;8614;48.522;9.206;2022-09-01T02:42:48;19.10;;;17.30;;
16994;SDS011;8614;48.522;9.206;2022-09-01T02:45:18;18.27;;;16.53;;
16994;SDS011;8614;48.522;9.206;2022-09-01T02:47:47;18.77;;;17.17;;
16994;SDS011;8614;48.522;9.206;2022-09-01T02:50:16;18.87;;;17.37;;
16994;SDS011;8614;48.522;9.206;2022-09-01T02:52:43;20.97;;;19.20;;
16994;SDS011;8614;48.522;9.206;2022-09-01T02:55:13;21.47;;;19.87;;
16994;SDS011;8614;48.522;9.206;2022-09-01T02:57:45;23.13;;;21.43;;
16994;SDS011;8614;48.522;9.206;2022-09-01T03:00:13;22.40;;;20.70;;
16994;SDS011;8614;48.522;9.206;2022-09-01T03:02:49;22.47;;;20.77;;
16994;SDS011;8614;48.522;9.206;2022-09-01T03:05:18;21.43;;;19.80;;
16994;SDS011;8614;48.522;9.206;2022-09-01T03:07:52;21.30;;;19.30;;
16994;SDS011;8614;48.522;9.206;2022-09-01T03:10:22;12.47;;;11.20;;
16994;SDS011;8614;48.522;9.206;2022-09-01T03:12:56;13.13;;;11.83;;
16994;SDS011;8614;48.522;9.206;2022-09-01T03:15:24;12.10;;;10.90;;
16994;SDS011;8614;48.522;9.206;2022-09-01T03:17:53;14.13;;;12.73;;
16994;SDS011;8614;48.522;9.206;2022-09-01T03:20:21;14.87;;;13.47;;
16994;SDS011;8614;48.522;9.206;2022-09-01T03:22:49;15.67;;;12.23;;
16994;SDS011;8614;48.522;9.206;2022-09-01T03:25:19;13.73;;;12.33;;
16994;SDS011;8614;48.522;9.206;2022-09-01T03:27:50;17.37;;;15.97;;
16994;SDS011;8614;48.522;9.206;2022-09-01T03:30:17;18.37;;;16.77;;
16994;SDS011;8614;48.522;9.206;2022-09-01T03:32:44;15.67;;;14.23;;
16994;SDS011;8614;48.522;9.206;2022-09-01T03:35:13;19.47;;;17.83;;
16994;SDS011;8614;48.522;9.206;2022-09-01T03:37:41;18.43;;;15.27;;
16994;SDS011;8614;48.522;9.206;2022-09-01T03:40:10;16.50;;;15.00;;
16994;SDS011;8614;48.522;9.206;2022-09-01T03:42:38;13.77;;;12.57;;
16994;SDS011;8614;48.522;9.206;2022-09-01T03:45:05;13.67;;;12.37;;
16994;SDS011;8614;48.522;9.206;2022-09-01T03:47:38;18.13;;;16.57;;
16994;SDS011;8614;48.522;9.206;2022-09-01T03:50:07;13.00;;;11.80;;
16994;SDS011;8614;48.522;9.206;2022-09-01T03:52:43;14.77;;;13.47;;
16994;SDS011;8614;48.522;9.206;2022-09-01T03:55:10;12.37;;;11.23;;
16994;SDS011;8614;48.522;9.206;2022-09-01T03:57:38;13.07;;;11.87;;
16994;SDS011;8614;48.522;9.206;2022-09-01T04:00:07;12.30;;;11.10;;
16994;SDS011;8614;48.522;9.206;2022-09-01T04:02:47;18.80;;;17.43;;
16994;SDS011;8614;48.522;9.206;2022-09-01T04:05:16;16.20;;;14.90;;
16994;SDS011;8614;48.522;9.206;2022-09-01T04:07:48;18.60;;;17.00;;
16994;SDS011;8614;48.522;9.206;2022-09-01T04:10:17;18.83;;;17.43;;
16994;SDS011;8614;48.522;9.206;2022-09-01T04:12:44;18.63;;;17.23;;
16994;SDS011;8614;48.522;9.206;2022-09-01T04:15:11;20.20;;;18.70;;
16994;SDS011;8614;48.522;9.206;2022-09-01T04:17:41;19.00;;;17.40;;
16994;SDS011;8614;48.522;9.206;2022-09-01T04:20:25;19.13;;;17.73;;
16994;SDS011;8614;48.522;9.206;2022-09-01T04:22:54;20.20;;;18.80;;
16994;SDS011;8614;48.522;9.206;2022-09-01T04:25:22;21.07;;;19.47;;
16994;SDS011;8614;48.522;9.206;2022-09-01T04:27:49;19.10;;;17.70;;
16994;SDS011;8614;48.522;9.206;2022-09-01T04:30:16;20.03;;;18.53;;
16994;SDS011;8614;48.522;9.206;2022-09-01T04:32:49;21.53;;;19.73;;
16994;SDS011;8614;48.522;9.206;2022-09-01T04:35:16;20.47;;;18.87;;
16994;SDS011;8614;48.522;9.206;2022-09-01T04:37:44;21.50;;;19.60;;
16994;SDS011;8614;48.522;9.206;2022-09-01T04:40:13;21.53;;;19.93;;
16994;SDS011;8614;48.522;9.206;2022-09-01T04:42:41;22.87;;;20.93;;
16994;SDS011;8614;48.522;9.206;2022-09-01T04:45:10;20.17;;;18.57;;
16994;SDS011;8614;48.522;9.206;2022-09-01T04:47:40;13.07;;;11.77;;
16994;SDS011;8614;48.522;9.206;2022-09-01T04:50:13;14.90;;;13.47;;
16994;SDS011;8614;48.522;9.206;2022-09-01T04:53:00;15.57;;;13.97;;
16994;SDS011;8614;48.522;9.206;2022-09-01T04:55:34;15.57;;;14.07;;
16994;SDS011;8614;48.522;9.206;2022-09-01T04:58:04;15.67;;;14.17;;
16994;SDS011;8614;48.522;9.206;2022-09-01T05:00:30;17.00;;;15.20;;
16994;SDS011;8614;48.522;9.206;2022-09-01T05:02:59;23.50;;;21.37;;
16994;SDS011;8614;48.522;9.206;2022-09-01T05:05:37;18.50;;;16.80;;
16994;SDS011;8614;48.522;9.206;2022-09-01T05:08:07;13.73;;;12.43;;
16994;SDS011;8614;48.522;9.206;2022-09-01T05:10:40;15.10;;;13.70;;
16994;SDS011;8614;48.522;9.206;2022-09-01T05:13:16;14.73;;;13.33;;
16994;SDS011;8614;48.522;9.206;2022-09-01T05:15:44;18.73;;;17.03;;
16994;SDS011;8614;48.522;9.206;2022-09-01T05:18:13;21.27;;;19.47;;
16994;SDS011;8614;48.522;9.206;2022-09-01T05:20:41;17.30;;;15.70;;
16994;SDS011;8614;48.522;9.206;2022-09-01T05:23:09;14.77;;;13.23;;
16994;SDS011;8614;48.522;9.206;2022-09-01T05:25:42;23.63;;;21.67;;
16994;SDS011;8614;48.522;9.206;2022-09-01T05:28:11;24.47;;;22.63;;
16994;SDS011;8614;48.522;9.206;2022-09-01T05:30:38;22.13;;;20.53;;
16994;SDS011;8614;48.522;9.206;2022-09-01T05:33:07;22.63;;;20.97;;
16994;SDS011;8614;48.522;9.206;2022-09-01T05:35:36;21.43;;;19.80;;
16994;SDS011;8614;48.522;9.206;2022-09-01T05:38:07;21.70;;;20.10;;
16994;SDS011;8614;48.522;9.206;2022-09-01T05:40:38;22.07;;;20.17;;
16994;SDS011;8614;48.522;9.206;2022-09-01T05:43:08;25.63;;;23.37;;
16994;SDS011;8614;48.522;9.206;2022-09-01T05:45:37;21.90;;;20.20;;
16994;SDS011;8614;48.522;9.206;2022-09-01T05:48:08;24.00;;;22.17;;
16994;SDS011;8614;48.522;9.206;2022-09-01T05:50:38;22.23;;;20.47;;
16994;SDS011;8614;48.522;9.206;2022-09-01T05:53:07;23.73;;;21.93;;
16994;SDS011;8614;48.522;9.206;2022-09-01T05:55:40;23.20;;;21.60;;
16994;SDS011;8614;48.522;9.206;2022-09-01T05:58:10;26.87;;;24.87;;
16994;SDS011;8614;48.522;9.206;2022-09-01T06:00:39;26.30;;;24.20;;
16994;SDS011;8614;48.522;9.206;2022-09-01T06:03:07;26.93;;;24.73;;
16994;SDS011;8614;48.522;9.206;2022-09-01T06:05:38;27.53;;;25.47;;
16994;SDS011;8614;48.522;9.206;2022-09-01T06:08:10;24.80;;;22.70;;
16994;SDS011;8614;48.522;9.206;2022-09-01T06:10:38;25.83;;;23.73;;
16994;SDS011;8614;48.522;9.206;2022-09-01T06:13:07;27.10;;;24.60;;
16994;SDS011;8614;48.522;9.206;2022-09-01T06:15:36;29.40;;;26.73;;
16994;SDS011;8614;48.522;9.206;2022-09-01T06:18:04;28.10;;;25.80;;
16994;SDS011;8614;48.522;9.206;2022-09-01T06:20:37;27.10;;;24.70;;
16994;SDS011;8614;48.522;9.206;2022-09-01T06:23:05;26.33;;;24.23;;
16994;SDS011;8614;48.522;9.206;2022-09-01T06:25:35;24.00;;;21.93;;
16994;SDS011;8614;48.522;9.206;2022-09-01T06:28:02;23.70;;;21.80;;
16994;SDS011;8614;48.522;9.206;2022-09-01T06:30:30;25.43;;;23.23;;
16994;SDS011;8614;48.522;9.206;2022-09-01T06:33:06;28.17;;;25.67;;
16994;SDS011;8614;48.522;9.206;2022-09-01T06:35:36;27.33;;;24.87;;
16994;SDS011;8614;48.522;9.206;2022-09-01T06:38:06;27.33;;;25.00;;
16994;SDS011;8614;48.522;9.206;2022-09-01T06:40:38;18.77;;;16.80;;
16994;SDS011;8614;48.522;9.206;2022-09-01T06:43:07;17.77;;;15.97;;
16994;SDS011;8614;48.522;9.206;2022-09-01T06:45:38;16.73;;;14.97;;
16994;SDS011;8614;48.522;9.206;2022-09-01T06:48:09;16.73;;;15.03;;
16994;SDS011;8614;48.522;9.206;2022-09-01T06:50:41;22.90;;;20.80;;
16994;SDS011;8614;48.522;9.206;2022-09-01T06:53:10;27.00;;;24.80;;
16994;SDS011;8614;48.522;9.206;2022-09-01T06:55:40;26.20;;;23.90;;
16994;SDS011;8614;48.522;9.206;2022-09-01T06:58:09;25.30;;;23.07;;
16994;SDS011;8614;48.522;9.206;2022-09-01T07:00:38;23.33;;;21.33;;
16994;SDS011;8614;48.522;9.206;2022-09-01T07:03:09;18.47;;;16.47;;
16994;SDS011;8614;48.522;9.206;2022-09-01T07:06:03;16.93;;;15.23;;
16994;SDS011;8614;48.522;9.206;2022-09-01T07:09:00;21.73;;;19.90;;
16994;SDS011;8614;48.522;9.206;2022-09-01T07:11:31;24.27;;;22.07;;
16994;SDS011;8614;48.522;9.206;2022-09-01T07:14:01;23.20;;;21.30;;
16994;SDS011;8614;48.522;9.206;2022-09-01T07:16:30;24.77;;;22.77;;
16994;SDS011;8614;48.522;9.206;2022-09-01T07:19:05;23.90;;;21.80;;
16994;SDS011;8614;48.522;9.206;2022-09-01T07:21:36;25.10;;;23.00;;
16994;SDS011;8614;48.522;9.206;2022-09-01T07:24:03;23.73;;;21.90;;
16994;SDS011;8614;48.522;9.206;2022-09-01T07:26:31;22.87;;;20.80;;
16994;SDS011;8614;48.522;9.206;2022-09-01T07:29:00;22.40;;;20.60;;
16994;SDS011;8614;48.522;9.206;2022-09-01T07:31:29;15.90;;;14.27;;
16994;SDS011;8614;48.522;9.206;2022-09-01T07:34:00;15.70;;;14.00;;
16994;SDS011;8614;48.522;9.206;2022-09-01T07:36:38;17.97;;;16.40;;
16994;SDS011;8614;48.522;9.206;2022-09-01T07:39:07;23.20;;;21.30;;
16994;SDS011;8614;48.522;9.206;2022-09-01T07:41:34;21.90;;;20.07;;
16994;SDS011;8614;48.522;9.206;2022-09-01T07:44:21;17.60;;;16.00;;
16994;SDS011;8614;48.522;9.206;2022-09-01T07:47:08;21.80;;;20.20;;
16994;SDS011;8614;48.522;9.206;2022-09-01T07:49:36;17.70;;;16.13;;
16994;SDS011;8614;48.522;9.206;2022-09-01T07:52:05;19.93;;;18.40;;
16994;SDS011;8614;48.522;9.206;2022-09-01T07:54:33;19.77;;;18.27;;
16994;SDS011;8614;48.522;9.206;2022-09-01T07:57:02;20.47;;;18.77;;
16994;SDS011;8614;48.522;9.206;2022-09-01T07:59:32;20.93;;;19.33;;
16994;SDS011;8614;48.522;9.206;2022-09-01T08:02:06;19.60;;;17.93;;
16994;SDS011;8614;48.522;9.206;2022-09-01T08:04:33;20.87;;;19.17;;
16994;SDS011;8614;48.522;9.206;2022-09-01T08:07:01;12.30;;;11.00;;
16994;SDS011;8614;48.522;9.206;2022-09-01T08:09:31;15.83;;;14.37;;
16994;SDS011;8614;48.522;9.206;2022-09-01T08:12:01;16.47;;;14.97;;
16994;SDS011;8614;48.522;9.206;2022-09-01T08:14:32;12.13;;;10.93;;
16994;SDS011;8614;48.522;9.206;2022-09-01T08:16:59;12.40;;;11.20;;
16994;SDS011;8614;48.522;9.206;2022-09-01T08:19:26;18.83;;;17.33;;
16994;SDS011;8614;48.522;9.206;2022-09-01T08:22:11;17.57;;;16.07;;
16994;SDS011;8614;48.522;9.206;2022-09-01T08:24:48;17.63;;;16.13;;
16994;SDS011;8614;48.522;9.206;2022-09-01T08:27:16;16.53;;;15.43;;
16994;SDS011;8614;48.522;9.206;2022-09-01T08:29:43;18.37;;;17.03;;
16994;SDS011;8614;48.522;9.206;2022-09-01T08:32:10;15.83;;;14.70;;
16994;SDS011;8614;48.522;9.206;2022-09-01T08:34:37;17.40;;;15.90;;
16994;SDS011;8614;48.522;9.206;2022-09-01T08:37:04;15.37;;;14.27;;
16994;SDS011;8614;48.522;9.206;2022-09-01T08:39:31;16.73;;;15.43;;
16994;SDS011;8614;48.522;9.206;2022-09-01T08:42:01;15.70;;;14.57;;
16994;SDS011;8614;48.522;9.206;2022-09-01T08:44:40;12.87;;;11.83;;
16994;SDS011;8614;48.522;9.206;2022-09-01T08:47:15;10.37;;;9.37;;
16994;SDS011;8614;48.522;9.206;2022-09-01T08:49:45;12.17;;;11.13;;
16994;SDS011;8614;48.522;9.206;2022-09-01T08:52:33;11.90;;;9.50;;
16994;SDS011;8614;48.522;9.206;2022-09-01T08:55:05;8.67;;;7.87;;
16994;SDS011;8614;48.522;9.206;2022-09-01T08:57:38;10.17;;;9.13;;
16994;SDS011;8614;48.522;9.206;2022-09-01T09:00:20;10.23;;;9.23;;
16994;SDS011;8614;48.522;9.206;2022-09-01T09:02:52;12.97;;;11.90;;
16994;SDS011;8614;48.522;9.206;2022-09-01T09:05:30;10.33;;;9.43;;
16994;SDS011;8614;48.522;9.206;2022-09-01T09:08:09;8.77;;;7.67;;
16994;SDS011;8614;48.522;9.206;2022-09-01T09:10:51;13.57;;;12.37;;
16994;SDS011;8614;48.522;9.206;2022-09-01T09:13:27;13.00;;;12.07;;
16994;SDS011;8614;48.522;9.206;2022-09-01T09:16:02;12.67;;;11.60;;
16994;SDS011;8614;48.522;9.206;2022-09-01T09:18:36;11.60;;;10.77;;
16994;SDS011;8614;48.522;9.206;2022-09-01T09:21:11;10.30;;;9.60;;
16994;SDS011;8614;48.522;9.206;2022-09-01T09:23:43;9.43;;;8.43;;
16994;SDS011;8614;48.522;9.206;2022-09-01T09:26:13;8.73;;;8.03;;
16994;SDS011;8614;48.522;9.206;2022-09-01T09:28:46;8.93;;;8.13;;
16994;SDS011;8614;48.522;9.206;2022-09-01T09:31:30;8.17;;;7.57;;
16994;SDS011;8614;48.522;9.206;2022-09-01T09:33:58;8.40;;;7.87;;
16994;SDS011;8614;48.522;9.206;2022-09-01T09:36:30;7.93;;;7.33;;
16994;SDS011;8614;48.522;9.206;2022-09-01T09:39:03;7.27;;;6.77;;
16994;SDS011;8614;48.522;9.206;2022-09-01T09:41:33;7.50;;;6.90;;
16994;SDS011;8614;48.522;9.206;2022-09-01T09:44:04;7.70;;;6.90;;
16994;SDS011;8614;48.522;9.206;2022-09-01T09:46:39;7.80;;;7.20;;
16994;SDS011;8614;48.522;9.206;2022-09-01T09:49:09;8.10;;;7.40;;
16994;SDS011;8614;48.522;9.206;2022-09-01T09:51:39;7.57;;;7.07;;
16994;SDS011;8614;48.522;9.206;2022-09-01T09:54:11;8.13;;;7.37;;
16994;SDS011;8614;48.522;9.206;2022-09-01T09:56:40;7.30;;;6.80;;
16994;SDS011;8614;48.522;9.206;2022-09-01T09:59:21;7.70;;;7.10;;
16994;SDS011;8614;48.522;9.206;2022-09-01T10:01:53;7.30;;;6.80;;
16994;SDS011;8614;48.522;9.206;2022-09-01T10:04:33;7.00;;;6.50;;
16994;SDS011;8614;48.522;9.206;2022-09-01T10:07:09;7.73;;;6.97;;
16994;SDS011;8614;48.522;9.206;2022-09-01T10:09:50;7.80;;;7.20;;
16994;SDS011;8614;48.522;9.206;2022-09-01T10:12:17;7.20;;;6.70;;
16994;SDS011;8614;48.522;9.206;2022-09-01T10:14:47;7.30;;;6.80;;
16994;SDS011;8614;48.522;9.206;2022-09-01T10:17:18;7.27;;;6.70;;
16994;SDS011;8614;48.522;9.206;2022-09-01T10:19:51;6.90;;;6.30;;
16994;SDS011;8614;48.522;9.206;2022-09-01T10:22:21;7.20;;;6.70;;
16994;SDS011;8614;48.522;9.206;2022-09-01T10:24:49;7.07;;;6.47;;
16994;SDS011;8614;48.522;9.206;2022-09-01T10:27:17;7.20;;;6.60;;
16994;SDS011;8614;48.522;9.206;2022-09-01T10:29:49;7.73;;;7.13;;
16994;SDS011;8614;48.522;9.206;2022-09-01T10:32:20;6.70;;;6.27;;
16994;SDS011;8614;48.522;9.206;2022-09-01T10:34:51;6.80;;;6.30;;
16994;SDS011;8614;48.522;9.206;2022-09-01T10:37:18;6.80;;;6.30;;
16994;SDS011;8614;48.522;9.206;2022-09-01T10:42:36;5.63;;;5.17;;
16994;SDS011;8614;48.522;9.206;2022-09-01T10:45:05;4.30;;;3.90;;
16994;SDS011;8614;48.522;9.206;2022-09-01T10:47:44;6.00;;;5.50;;
16994;SDS011;8614;48.522;9.206;2022-09-01T10:50:25;4.40;;;4.00;;
16994;SDS011;8614;48.522;9.206;2022-09-01T10:53:00;3.80;;;3.43;;
16994;SDS011;8614;48.522;9.206;2022-09-01T10:55:39;4.90;;;4.50;;
16994;SDS011;8614;48.522;9.206;2022-09-01T11:07:44;6.37;;;5.87;;
16994;SDS011;8614;48.522;9.206;2022-09-01T11:13:20;6.30;;;5.70;;
16994;SDS011;8614;48.522;9.206;2022-09-01T11:18:54;6.47;;;5.90;;
16994;SDS011;8614;48.522;9.206;2022-09-01T11:21:41;6.30;;;5.80;;
16994;SDS011;8614;48.522;9.206;2022-09-01T11:30:22;6.10;;;5.63;;
16994;SDS011;8614;48.522;9.206;2022-09-01T11:32:58;5.93;;;5.43;;
16994;SDS011;8614;48.522;9.206;2022-09-01T11:35:28;4.70;;;4.37;;
16994;SDS011;8614;48.522;9.206;2022-09-01T11:37:56;4.57;;;4.17;;
16994;SDS011;8614;48.522;9.206;2022-09-01T11:40:30;3.73;;;3.43;;
16994;SDS011;8614;48.522;9.206;2022-09-01T11:43:02;3.60;;;3.30;;
16994;SDS011;8614;48.522;9.206;2022-09-01T11:45:32;4.40;;;3.70;;
16994;SDS011;8614;48.522;9.206;2022-09-01T11:48:09;4.00;;;3.70;;
16994;SDS011;8614;48.522;9.206;2022-09-01T11:50:39;4.03;;;3.73;;
16994;SDS011;8614;48.522;9.206;2022-09-01T11:53:07;4.57;;;3.93;;
16994;SDS011;8614;48.522;9.206;2022-09-01T11:55:39;4.17;;;3.80;;
16994;SDS011;8614;48.522;9.206;2022-09-01T11:58:09;4.40;;;3.80;;
16994;SDS011;8614;48.522;9.206;2022-09-01T12:00:37;4.03;;;3.73;;
16994;SDS011;8614;48.522;9.206;2022-09-01T12:03:17;4.10;;;3.73;;
16994;SDS011;8614;48.522;9.206;2022-09-01T12:05:51;5.63;;;3.93;;
16994;SDS011;8614;48.522;9.206;2022-09-01T12:08:26;4.47;;;3.90;;
16994;SDS011;8614;48.522;9.206;2022-09-01T12:11:03;3.90;;;3.60;;
16994;SDS011;8614;48.522;9.206;2022-09-01T12:13:31;3.97;;;3.67;;
16994;SDS011;8614;48.522;9.206;2022-09-01T12:16:00;4.07;;;3.70;;
16994;SDS011;8614;48.522;9.206;2022-09-01T12:18:30;7.00;;;3.90;;
16994;SDS011;8614;48.522;9.206;2022-09-01T12:20:59;4.67;;;3.93;;
16994;SDS011;8614;48.522;9.206;2022-09-01T12:23:28;4.40;;;4.00;;
16994;SDS011;8614;48.522;9.206;2022-09-01T12:26:07;4.43;;;4.03;;
16994;SDS011;8614;48.522;9.206;2022-09-01T12:28:39;4.63;;;4.23;;
16994;SDS011;8614;48.522;9.206;2022-09-01T12:31:12;4.03;;;3.73;;
16994;SDS011;8614;48.522;9.206;2022-09-01T12:33:41;3.80;;;3.50;;
16994;SDS011;8614;48.522;9.206;2022-09-01T12:36:22;3.90;;;3.60;;
16994;SDS011;8614;48.522;9.206;2022-09-01T12:38:51;4.20;;;3.80;;
16994;SDS011;8614;48.522;9.206;2022-09-01T12:41:24;3.63;;;3.33;;
16994;SDS011;8614;48.522;9.206;2022-09-01T12:46:59;4.77;;;3.63;;
16994;SDS011;8614;48.522;9.206;2022-09-01T12:49:35;3.17;;;2.97;;
16994;SDS011;8614;48.522;9.206;2022-09-01T12:52:05;3.87;;;3.50;;
16994;SDS011;8614;48.522;9.206;2022-09-01T12:54:36;3.83;;;3.53;;
16994;SDS011;8614;48.522;9.206;2022-09-01T12:57:06;4.10;;;3.70;;
16994;SDS011;8614;48.522;9.206;2022-09-01T12:59:35;3.60;;;3.30;;
16994;SDS011;8614;48.522;9.206;2022-09-01T13:07:44;4.00;;;3.50;;
16994;SDS011;8614;48.522;9.206;2022-09-01T13:10:11;3.97;;;3.50;;
16994;SDS011;8614;48.522;9.206;2022-09-01T13:12:40;3.80;;;3.50;;
16994;SDS011;8614;48.522;9.206;2022-09-01T13:15:08;3.80;;;3.23;;
16994;SDS011;8614;48.522;9.206;2022-09-01T13:17:36;4.83;;;3.40;;
16994;SDS011;8614;48.522;9.206;2022-09-01T13:20:03;3.97;;;3.60;;
16994;SDS011;8614;48.522;9.206;2022-09-01T13:22:33;3.63;;;3.33;;
16994;SDS011;8614;48.522;9.206;2022-09-01T13:25:01;3.63;;;3.33;;
16994;SDS011;8614;48.522;9.206;2022-09-01T13:27:28;3.63;;;3.30;;
16994;SDS011;8614;48.522;9.206;2022-09-01T13:29:56;4.07;;;3.67;;
16994;SDS011;8614;48.522;9.206;2022-09-01T13:32:23;3.50;;;3.17;;
16994;SDS011;8614;48.522;9.206;2022-09-01T13:34:50;3.60;;;3.33;;
16994;SDS011;8614;48.522;9.206;2022-09-01T13:37:18;4.00;;;3.60;;
16994;SDS011;8614;48.522;9.206;2022-09-01T13:39:46;4.23;;;3.83;;
16994;SDS011;8614;48.522;9.206;2022-09-01T13:42:12;4.23;;;3.70;;
16994;SDS011;8614;48.522;9.206;2022-09-01T13:44:40;4.20;;;3.77;;
16994;SDS011;8614;48.522;9.206;2022-09-01T13:47:08;3.77;;;3.47;;
16994;SDS011;8614;48.522;9.206;2022-09-01T13:49:35;4.83;;;3.87;;
16994;SDS011;8614;48.522;9.206;2022-09-01T13:52:02;4.13;;;3.37;;
16994;SDS011;8614;48.522;9.206;2022-09-01T13:54:28;3.93;;;3.60;;
16994;SDS011;8614;48.522;9.206;2022-09-01T13:56:55;3.87;;;3.50;;
16994;SDS011;8614;48.522;9.206;2022-09-01T13:59:23;4.57;;;3.43;;
16994;SDS011;8614;48.522;9.206;2022-09-01T14:01:49;4.73;;;3.60;;
16994;SDS011;8614;48.522;9.206;2022-09-01T14:04:18;4.30;;;3.40;;
16994;SDS011;8614;48.522;9.206;2022-09-01T14:06:46;4.00;;;3.47;;
16994;SDS011;8614;48.522;9.206;2022-09-01T14:09:14;3.73;;;3.37;;
16994;SDS011;8614;48.522;9.206;2022-09-01T14:11:41;3.90;;;3.50;;
16994;SDS011;8614;48.522;9.206;2022-09-01T14:14:08;4.20;;;3.60;;
16994;SDS011;8614;48.522;9.206;2022-09-01T14:16:35;3.60;;;3.30;;
16994;SDS011;8614;48.522;9.206;2022-09-01T14:19:02;3.53;;;3.23;;
16994;SDS011;8614;48.522;9.206;2022-09-01T14:21:30;3.63;;;3.33;;
16994;SDS011;8614;48.522;9.206;2022-09-01T14:24:00;3.33;;;3.03;;
16994;SDS011;8614;48.522;9.206;2022-09-01T14:26:31;3.60;;;3.30;;
16994;SDS011;8614;48.522;9.206;2022-09-01T14:29:12;3.70;;;3.40;;
16994;SDS011;8614;48.522;9.206;2022-09-01T14:32:12;3.37;;;3.10;;
16994;SDS011;8614;48.522;9.206;2022-09-01T14:34:41;3.53;;;3.23;;
16994;SDS011;8614;48.522;9.206;2022-09-01T14:37:09;3.27;;;3.00;;
16994;SDS011;8614;48.522;9.206;2022-09-01T14:39:35;3.83;;;3.53;;
16994;SDS011;8614;48.522;9.206;2022-09-01T14:42:03;3.90;;;3.60;;
16994;SDS011;8614;48.522;9.206;2022-09-01T14:44:34;3.13;;;2.93;;
16994;SDS011;8614;48.522;9.206;2022-09-01T14:47:01;3.70;;;3.40;;
16994;SDS011;8614;48.522;9.206;2022-09-01T14:49:30;3.60;;;3.30;;
16994;SDS011;8614;48.522;9.206;2022-09-01T14:52:01;4.00;;;3.60;;
16994;SDS011;8614;48.522;9.206;2022-09-01T14:54:32;3.73;;;3.40;;
16994;SDS011;8614;48.522;9.206;2022-09-01T14:56:59;4.73;;;3.83;;
16994;SDS011;8614;48.522;9.206;2022-09-01T14:59:26;4.00;;;3.70;;
16994;SDS011;8614;48.522;9.206;2022-09-01T15:01:53;3.93;;;3.63;;
16994;SDS011;8614;48.522;9.206;2022-09-01T15:04:20;4.33;;;3.37;;
16994;SDS011;8614;48.522;9.206;2022-09-01T15:06:47;3.60;;;3.30;;
16994;SDS011;8614;48.522;9.206;2022-09-01T15:09:15;4.87;;;3.50;;
16994;SDS011;8614;48.522;9.206;2022-09-01T15:11:44;3.50;;;3.20;;
16994;SDS011;8614;48.522;9.206;2022-09-01T15:14:11;3.90;;;3.50;;
16994;SDS011;8614;48.522;9.206;2022-09-01T15:16:38;3.60;;;3.30;;
16994;SDS011;8614;48.522;9.206;2022-09-01T15:19:06;4.63;;;3.23;;
16994;SDS011;8614;48.522;9.206;2022-09-01T15:21:34;4.13;;;3.80;;
16994;SDS011;8614;48.522;9.206;2022-09-01T15:24:02;3.70;;;3.40;;
16994;SDS011;8614;48.522;9.206;2022-09-01T15:26:29;4.27;;;3.87;;
16994;SDS011;8614;48.522;9.206;2022-09-01T15:28:58;3.97;;;3.57;;
16994;SDS011;8614;48.522;9.206;2022-09-01T15:31:26;4.57;;;3.33;;
16994;SDS011;8614;48.522;9.206;2022-09-01T15:33:57;3.50;;;3.27;;
16994;SDS011;8614;48.522;9.206;2022-09-01T15:36:25;5.33;;;3.50;;
16994;SDS011;8614;48.522;9.206;2022-09-01T15:38:53;4.10;;;3.77;;